Nearby METAR Reports

 

YSRI - Richmond (aus-Af, Australia
Distance from station: WSW 35km
Updated: 10/08/2022 17:30
Clear
Clear
 Wind from E
Wind: E 11 km/h
Temperature: 14°C
Dew Point: 10°C
Humidity: 77%
Barometer: 1026 hPa
Clouds: Clear
Visibility: 10 km
2022/08/10 07:30 YSRI 100730Z AUTO 09006KT 9999 // NCD 14/10 Q1026 RF00.0/000.0
YSSY - Sydney Intl Airp, Australia
Distance from station: S 47km
Updated: 10/08/2022 17:30
Few Clouds
Few Clouds
 Wind from E
Wind: E 7 km/h
Temperature: 13°C
Dew Point: 9°C
Humidity: 77%
Barometer: 1026 hPa
Clouds: Few Clouds
Visibility: 10 km
Cloud details: Few Clouds 1067 m
2022/08/10 07:30 YSSY 100730Z 09004KT 9999 FEW035 13/09 Q1026
 
YWLM - Williamtown Arp, Australia
Distance from station: NE 104km
Updated: 10/08/2022 17:30
Clear
Clear
 Wind from calm
Wind: Calm
Temperature: 13°C
Dew Point: 11°C
Humidity: 88%
Barometer: 1026 hPa
Clouds: Clear
Visibility: 10 km
2022/08/10 07:30 YWLM 100730Z AUTO 00000KT 9999 // NCD 13/11 Q1026 RF00.0/000.2
YSNW - Nowra (aus-Navy), Australia
Distance from station: SSW 168km
Updated: 09/08/2022 17:21
NOT Current
Light rain, Showers, Mostly cloudy
Light rain, Showers, Mostly cloudy
 Wind from SSW
Wind: SSW 6 km/h
Temperature: 10°C
Dew Point: 10°C
Humidity: 100%
Barometer: 1025 hPa
Summary: Light rain, Showers
Clouds: Mostly cloudy
Visibility: 10 km
Cloud details: Partly cloudy 518 m
Mostly cloudy 762 m
2022/08/09 07:21 YSNW 090721Z 20003KT 9999 -SHRA SCT017 BKN025 10/10 Q1025
 
YMDG - Mudgee Arpt, Australia
Distance from station: NW 177km
Updated: 10/08/2022 09:01
NOT Current
Partly cloudy
Partly cloudy
 Wind from SE
Wind: SE 15 km/h
Temperature: 11°C
Dew Point: 6°C
Humidity: 72%
Barometer: 1028 hPa
Clouds: Partly cloudy
Visibility: 10 km
Cloud details: Partly cloudy 640 m
2022/08/09 23:01 YMDG 092301Z AUTO 13008KT 9999 // SCT021 11/06 Q1028
YTRE - Taree Airport, Australia
Distance from station: NE 224km
Updated: 09/08/2022 15:25
NOT Current
Overcast
Overcast
 Wind from S
Wind: S 9 km/h
Temperature: 12°C
Dew Point: 11°C
Humidity: 94%
Barometer: 1021 hPa
Clouds: Overcast
Visibility: 10 km
Cloud details: Partly cloudy 1006 m
Partly cloudy 1585 m
Overcast 1951 m
2022/08/09 05:25 YTRE 090525Z AUTO 19005KT 9999 // SCT033 SCT052 OVC064 12/11 Q1021
 
YSCB - Canberra (civ/Mi, Australia
Distance from station: SW 265km
Updated: 10/08/2022 17:30
Clear
Clear
 Wind from ENE
Wind: ENE 13 km/h
Temperature: 9°C
Wind Chill: 7°C
Dew Point: 2°C
Humidity: 62%
Barometer: 1025 hPa
Clouds: Clear
Visibility: 10 km
2022/08/10 07:30 YSCB 100730Z AUTO 06007KT 9999 // NCD 09/02 Q1025
YSTW - Tamworth Airport, Australia
Distance from station: N 275km
Updated: 10/08/2022 17:30
Clear
Clear
 Wind from SSE
Wind: SSE 17 km/h
Temperature: 12°C
Dew Point: 4°C
Humidity: 58%
Barometer: 1023 hPa
Clouds: Clear
Visibility: 10 km
2022/08/10 07:30 YSTW 100730Z AUTO 15009KT 9999 // NCD 12/04 Q1023 RF00.0/000.0
 
YSDU - Dubbo, Australia
Distance from station: WNW 280km
Updated: 10/08/2022 17:30
Clear
Clear
 Wind from E
Wind: E 13 km/h
Temperature: 12°C
Dew Point: 5°C
Humidity: 63%
Barometer: 1024 hPa
Clouds: Clear
Visibility: 10 km
2022/08/10 07:30 YSDU 100730Z AUTO 09007KT 9999 // NCD 12/05 Q1024 RF00.0/000.0
YPMQ - Port Macquarie, Australia
Distance from station: NE 284km
Updated: 10/08/2022 16:34
NOT Current
Overcast
Overcast
 Wind from SW
Wind: SW 9 km/h
Temperature: 13°C
Dew Point: 12°C
Humidity: 94%
Barometer: 1026 hPa
Clouds: Overcast
Visibility: 10 km
Cloud details: Partly cloudy 1097 m
Mostly cloudy 1341 m
Overcast 1554 m
2022/08/10 06:34 YPMQ 100634Z AUTO 23005KT 9999 // SCT036 BKN044 OVC051 13/12 Q1026
 
YCBB - Coonabarabran, Australia
Distance from station: NW 300km
Updated: 07/08/2022 14:55
NOT Current
Rain, Mostly cloudy
Rain, Mostly cloudy
 Wind from SSW
Wind: SSW 20 km/h
Temperature: 8°C
Wind Chill: 4°C
Dew Point: 3°C
Humidity: 71%
Barometer: 1017 hPa
Summary: Rain
Clouds: Mostly cloudy
Visibility: 9 km
Cloud details: Partly cloudy 1067 m
Mostly cloudy 1250 m
Mostly cloudy 1494 m
2022/08/07 04:55 YCBB 070455Z AUTO 21011KT 160V220 9000 RA SCT035 BKN041 BKN049 08/03 Q1017